MET'MAP v2.0
soon released !

Expected late october,
this new version will be
more efficient, smarter,
and hosted on a brand new
server x3 powerfull...
...and still free !


Not compatible ?
Try the mobile version !

LOG IN : | Subscribe | Disclaimer | Who is Orbifly ? |
ICAO code :

TAF - LGRX Araxos - 03 Apr 2020 23:09 UTC - Data Source NOAA   


- Airport Elevation : 46 ft
- IATA code : GPA
- No reported NOTAMs.


LGRX - Araxos

Latest METAR recorded : 2015/08/11 07:50 LGRX 110750Z VRB03KT 9999 FEW025 SCT180 29/21 Q1012
TAF TAF LGRX
Valid from the 03 at 21:00 until the 04 at 06:00 UTC


032000Z 0321/0406 06015KT 9999 SCT025 BKN080
PROB40
TEMPO 0321/0406 6000 RA
PROB30
TEMPO 0401/0406 3000 TSRA SCT010 FEW018CB BKN020 OVC080
TEMPO 0400/0406 06015G30KT

Source NOAA


MET'MAP, your aeronautical weather chart ! - Copyright ORBIFLY December 2007

Programming & Development : Alexandra Zaïnal
Co-Developer : Marc-Olivier Méhu
Technical & hardware support : Manuel Goepfert
Concept & Financing : Baudouin d'Aumeries